Timeline UpdatesTrip UpdatesNews PostsPvt PostsTravel TipsAdmin PostsConv PostsFollowed PostsChat RequestsBlog PostsPNR Posts

Disclaimer
Search
 
 
Tue Sep 2, 2014 14:48:51 ISTHomeTrainsΣChainsAtlasPNRForumGalleryNewsFAQTripsMembersLoginFeedback
No Recent News for this Train
Other Trains in the News **new
Latest...
.
Mon Sep 01, 2014 (10:27PM)
⇐ Return Journey: Train# 15708

15707/Amrapali Express

Time-Table HAS CHANGED.
Yesterday (11:37PM)
Change Departure Station:
Change Arrival Station:
Post a Train Travel TipPost a Train Travel Tip **new
Post a Comment/Question/Picture/VideoPost a Comment/Question/Picture/Video
Pantry/Catering
✕ NO Pantry Car
✓ Catering Avbl
RSA - Rake Sharing
Rake/Coach Composition
Loco«SLR-GN-GN-GN-GN-A1-B1-S1-S2-S3-S4-S5-S6-S7-S8-S9-GN-GN-GN-GN-GN-SLR= 22 Coach Train. S1 becomes S9 in DN train.
Loco
SGUJ WDP 4 from KIR-LKO, CNB WAP 4 from...
Read more...
LKO-ASR.
News    PNR    Forum    Time-Table    Availability    Fare Chart    Map    Arr/Dep History    Trips    Gallery    ΣChains    X/O    Timeline    
Travel Time: 1h 26m    1 halts    Distance: 89 km    Avg Speed: 62 km/hr
Type: Mail/Express
Zone: NFR/Northeast Frontier
Departs @ 03:25
Platform# 10
SMTWTFS
Old Delhi Junction/DLI 
Arrives @ 04:51
Platform# 3
SMTWTFS
Panipat Junction/PNP 

1 halts. 18 intermediate Stations between Old Delhi Junction and Panipat Junction

Hide intermediate Stations  Show Old Time-Table

#CodeStation NameX/OArrivesAvgDepartsAvgHaltPFDay#KmSpeedElevZoneAddress
1KIRKatihar Junction (7)  -23:30-11-1350.86435mNFRKatihar 854105, Bihar
1.1SMOSemapurX  23:41-23:41-  1-1339.3 6435mECRKatihar, Bihar
2CRRKaragola Road  23:51-23:52-1m--1-1328.57836mECRLachhmipur, Bihar
2.1BRZRBarari Bazar  23:54-23:54-  1-1325.8 7834mECRMarghia, Bihar
2.2BKHRBakhri  23:56-23:56-  1-1323.1 7835mECRBakhri, Bihar
3KUEKursela  00:07 00:05-00:08 00:06-1m--2-1311.64831mECRNH 31, Bihar
3.1KTRHKatareahX  00:15-00:15-  2-1304.1 480mECRKumadpur, Bihar
4NNANaugachia (3)  00:25 00:29-00:26 00:30-1m22-1293.06437mECRBhagalpur, Bihar
4.1KHQKharik (3)  00:37-00:37-  2-1285.2 6438mECRKharik, Bihar
4.2BIGHBagrigram Halt (1)  00:40-00:40-  2-1282.0 6438mECRBagri, Bihar
5THBThana Bihpur Junction (3)  00:42 00:45-00:43 00:46-1m--2-1277.17639mECRThana Bihpur, Bihar
5.1NNRNarayanpur (2)  00:52-00:52-  2-1269.5 7639mECRNarayanpur, Bihar
5.2BRKBBharat Khand (1)  00:56-00:56-  2-1264.1 7634mECRBharat Khand, Bihar
5.3BRKDBharat Khand  00:56-00:56-  2-1264.1 7635mECRNational Highway 31, Bihar
5.4PSRPasraha (3)  01:01-01:01-  2-1257.9 7641mECRPasraha, Bihar
5.5GAIGauchhari (3)  01:08-01:08-  2-1249.6 7640mECRGauchhari, Bihar
5.6MSKMahes Khunt (2)  01:11-01:11-  2-1245.5 7637mECRMaheshkhunt, Bihar
5.7CDBNChedhabanni Halt (2)  01:15-01:15-  2-1239.9 7642mECRChedhabanni, Bihar
6MNEMansi Junction (4)X  01:23 01:19-01:24 01:20-1m--2-1235.14843mECRMansi, Bihar
7KGGKhagaria Junction (3)  01:43 01:31-01:44 01:32-1m--2-1226.35343mECRKhagaria, Bihar
7.1UMNRUmeshnagar (3)  01:40-01:40-  2-1219.5 5341mECRNational Highway 31, Bihar
7.2SKJSahibpur Kamal Junction (2)  01:46-01:46-  2-1213.9 5341mECRShahpur Kamal, Bihar
7.3SANHSanha Halt (2)X  01:50-01:50-  2-1210.4 5342mECRSanha, Bihar
7.4LKNLakhminia (3)  01:57-01:57-  2-1204.2 5345mECRBegusarai, Bihar
7.5DPLDanauli Phulwaria (3)  02:03-02:03-  2-1198.9 5342mECRDanauli Phlwria, Bihar
7.6LAKLakho (1)X  02:09-02:09-  2-1193.8 5344mECRLakho, Bihar
8BGSBegusarai (3)X  02:30 02:17-02:31 02:18-1m--2-1186.41546mECRBegusarai, Bihar
8.1TILTilrath (2)X  02:44-02:44-  2-1179.6 1546mECRNH 31, Bihar
8.2BEHTBihat Halt (2)  02:59-02:59-  2-1175.9 1546mECRBihat Halt, Bihar
9BJUBarauni Junction (9)X  03:10-03:20-10m72-1173.05549mECRBegusarai, Bihar
9.1BUJBarauni Flag (2)  03:23-03:23-  2-1170.3 5549mECRDistt: Begusarai, Bihar
9.2TGATeghra (3)  03:28-03:28-  2-1165.6 5548mECRBegusarai, Bihar
9.3BCABachwara Junction (3)  03:38-03:38-  2-1156.6 5549mECRBegusarai, Bihar
9.4STJTSathajagat (2)  03:45-03:45-  2-1150.2 5549mECRSathajagat, Bihar
9.5DSSDalsingh Sarai (2)  03:50-03:50-  2-1145.7 55 ECR06278-221238, Bihar
9.6BSRABasarhia Halt (2)  03:54-03:54-  2-1141.4 5552mECRBasaria, Bihar
9.7NAZJNazirGanj (2)  03:58-03:58-  2-1137.8 5551mECRNazirGanj, Bihar
9.8UJPUjiarpur (2)  04:05-04:05-  2-1131.5 5551mECRSamastipur, Bihar
9.9BLRIBelari Halt  04:10-04:10-  2-1127.1 5551mECRMalti, Bihar
10SPJSamastipur Junction (9)X  04:17 04:15-04:22 04:20-5m82-1122.55855mECRSamastipur, Bihar
10.1KPGMKarpurigram (3)  04:26-04:26-  2-1116.2 5851mECRState Highway 49, Bihar
11KRBPKhudiram B Pusa (2)X  04:36 04:34-04:37 04:35-1m--2-1108.86252mECRDistt. Samastipur, Bihar
11.1VBHVishnupur Bathua HaltX  04:39-04:39-  2-1105.1 6255mECRTajpur - Garhia - Pusa Road, Bihar
11.2DUBHDubaha (2)  04:42-04:42-  2-1101.5 6255mECRDubha Station, Bihar
12DOLDholi (2)  04:50 04:48-04:51 04:49-1m--2-1095.542 ECRDistt. Muzaffarpur, Bihar
12.1SIHOSiho (2)X  04:59-04:59-  2-1088.6 4253mECRNational Highway 28, Bihar
12.2SLTSilaut (2)  05:10-05:10-  2-1080.8 4257mECRMuzaffarpur, Bihar
12.3NRPANarayanpur Anant (3)  05:18-05:18-  2-1075.2 4256mECRMuzaffarpur, Bihar
13MFPMuzaffarpur Junction (6)X  05:27 05:25-05:37 05:30-10 5m32-1070.34157mECRMuzaffarpur, Bihar
13.1RDRam Dayalu Nagar (3)X  05:39-05:39-  2-1064.3 4156mECRMuzaffarpur, Bihar
13.2TURTurki (2)  05:50-05:50-  2-1056.6 4155mECRTurki, Bihar
13.3KHIKurhani (2)X  05:59-05:59-  2-1050.2 4156mECRKurhani, Bihar
13.4GRLGoraul (2)X  06:08-06:08-  2-1044.4 4157mECRVAISHALI, Bihar
13.5BNPTBenipatti Pirapur (1)  06:11-06:11-  2-1042.5 4155mECRGhojaul Rd, Bihar
13.6BNRBhagwanpur (2)  06:20-06:20-  2-1036.2 4160mECRBhagwanpur, Bihar
13.7BTHLBithauli (1)  06:27-06:27-  2-1031.5 4158mECRVaishali, Bihar
13.8SAISarai (1)  06:33-06:33-  2-1027.1 4154mECRVaishali, Bihar
13.9GWHGhoshawar (1)  06:42-06:42-  2-1021.1 4154mECRDaulatpur Deoria urf Daulatpur, Bihar
14HJPHajipur Junction (3)  06:49-06:50-1m--2-1016.53355mECR06224-272230, Bihar
15SEESonpur Junction (4)X  07:00-07:10-10m32-1011.02756mECRSaran, Bihar
15.1PMUParmanandpur (2)X  07:25-07:25-  2-1004.3 2756mECRNational Highway 19, Bihar
15.2NYONayagaon (2)  07:35-07:35-  2-999.7 2753mECRNayagaon Sarai, Bihar
15.3STLRSitalpur (2)X  07:52-07:52-  2-992.0 2757mECRSitalpur, Bihar
15.4DGADighwara (2)  08:01-08:01-  2-987.8 2760mECR06158-281240, Bihar
15.5AABHAmbika Bhawani Halt (1)X  08:10-08:10-  2-983.9 2759mECRNH 19, Bihar
15.6ATNRAwatarnagar (2)  08:14-08:14-  2-982.0 2756mECRNH 19, Bihar
15.7PPDAPanchpatia Deoria Halt (1)  08:19-08:19-  2-979.8 2757mECRNH 19, Bihar
15.8BAGLBaragopal (2)X  08:25-08:25-  2-977.0 2757mECRSH 46, Bihar
15.9DRIDumri Juara (2)X  08:35-08:35-  2-972.9 2757mECRSaran, Bihar
15.10GJHGoldinganj (2)X  08:45-08:45-  2-968.2 2758mECRChapra Patna Highway, Bihar
15.11CIChhapra Kacheri (3)  09:05-09:05-  2-959.1 2757mNERChhapra, Bihar
16CPRChhapra Junction (6)  08:40 09:10-08:50 09:20-10m32-956.98258mNERDistt: Saran, Bihar
16.1TKVRTeknewas (2)  09:23-09:23-  2-952.6 8258mNERSaran, Bihar
16.2KPSKopa Samhota (2)X  09:28-09:28-  2-946.3 8269mNERKopa Samhota Station Rd, Bihar
16.3DDPDaudpur (2)  09:34-09:34-  2-937.7 8259mNERChhapra, Bihar
16.4EKMAEkma (3)  09:41-09:41-  2-929.0 8264mNERSaran, Bihar
16.5MHRNMahendranath Halt (2)  09:44-09:44-  2-923.7 8263mNERMahendrana, Uttar Pradesh
16.6CWChainwa (2)  09:46-09:46-  2-921.7 8263mNERSiwan, Bihar
16.7DDADuraundha Junction (3)X  09:52-09:52-  2-913.5 8264mNERDistt: Siwan, Bihar
16.8PCKPachrukhi (2)  09:59-09:59-  2-904.1 8267mNERPachrukhi, Bihar
17SVSiwan Junction (4)  09:40 10:05-09:45 10:10-5m--2-895.77170mNERSiwan, Bihar
17.1ZRDEJiradei (2)X  10:19-10:19-  2-885.4 7169mNERSiwan, Bihar
17.2KYWKarchhue  10:23-10:23-  2-879.9 7170mNERState Highway 47, Bihar
17.3MWMairwa (2)X  10:28-10:28-  2-874.4 7173mNERMairwa, Bihar
17.4BTKBankata (2)XO  10:34-10:34-  2-868.0 7173mNERDeoria, Uttar Pradesh
17.5BHTRBhatpar Rani (2)X  10:40-10:40-  2-859.9 7173mNERDeoria, Uttar Pradesh
17.6NNPRNonapar  10:47-10:47-  2-851.8 7176mNERSalempur Mairwa Rd, Uttar Pradesh
17.7BTTBhatni Junction (5)  10:51-10:51-  2-847.0 7173mNERDeoria, Uttar Pradesh
17.8NRANunkhar (2)  10:58-10:58-  2-839.7 7175mNERBaikunthpur, Uttar Pradesh
17.9AHLRAhalyapur  11:04-11:04-  2-832.4 7181mNERDeoria, Uttar Pradesh
18DEOSDeoria Sadar (3)  11:04 11:09-11:05 11:10-1m--2-826.23579mNERDeoria- 274001, Uttar Pradesh
18.1BALRBaitalpur (2)  11:21-11:21-  2-819.7 3582mNERPin- 274201, Uttar Pradesh
18.2GBGauri Bazar (2)  11:36-11:36-  2-811.2 3582mNERDistrict Deoria- Pincode- 274202, Uttar Pradesh
18.3CCChauri Chaura (2)X  11:53-11:53-  2-801.5 3584mNERGorakhpur- PinCode:- 273201, Uttar Pradesh
18.4SANRSardarnagar  12:02-12:02-  2-796.2 3582mNERGorakhpur-Deoria Road, Uttar Pradesh
18.5KHMKusmhi (2)X  12:12-12:12-  2-790.2 3583mNERGorakhpur, Uttar Pradesh
18.6GKCGorakhpur Cantt. (3)  12:29-12:29-  2-780.8 3585mNERGorakhpur-273001, Uttar Pradesh
19GKPGorakhpur Junction (10)X  12:15 12:35-12:35 12:50-20 15m52-777.14884mNERGorakhpur 273001, Uttar Pradesh
19.1DMGDomingarh (2)X  12:55-12:55-  2-773.0 4880mNERGorakhpur- 273004, Uttar Pradesh
19.2JTBJagatbela (2)X  13:03-13:03-  2-766.3 4878mNERDistt Gorakhpur- 273015, Uttar Pradesh
19.3SWASahjanwa (2)  13:11-13:11-  2-760.0 4880mNERGorakhpur - 273209, Uttar Pradesh
19.4SIPRSihapar Halt (2)  13:17-13:17-  2-755.0 4880mNERGorakhpur, Uttar Pradesh
19.5MHHMaghar (3)X  13:21-13:21-  2-751.7 4883mNERNH 28. Distt- SantKabirNagar- 272173, Uttar Pradesh
20KLDKhalilabad (3)  13:12 13:32-13:13 13:33-1m12-743.26686mNERKhalilabad- 272175, Uttar Pradesh
20.1CRVChureb (2)X  13:40-13:40-  2-735.4 6688mNERDistrict- Khalilabad, Uttar Pradesh
20.2MNDMunderwa (2)  13:47-13:47-  2-727.9 6689mNERNational Highway 28, Uttar Pradesh
20.3ORWOrwara (2)X  13:53-13:53-  2-721.3 6691mNERDistrict- BASTI, Uttar Pradesh
21BSTBasti (4)  13:40 14:00-13:45 14:05-5m12-713.712590mNERBasti 272001, Uttar Pradesh
21.1GOVRGovindnagar (2)X  14:08-14:08-  2-707.3 12593mNERPin-272002, Uttar Pradesh
21.2THTinich (2)  14:12-14:12-  2-698.9 12595mNERDistrict- Basti, Uttar Pradesh
21.3GAURGaur (2)  14:16-14:16-  2-690.7 12596mNERDistrict-Basti, Uttar Pradesh
21.4BVBabhnan (2)  14:20-14:20-  2-682.9 125101mNERDistrict- Basti, Uttar Pradesh
21.5PATIParsa Tiwari (2)  14:22-14:22-  2-677.3 12598mNERChhapaiya Rd, Uttar Pradesh
21.6BNGYBahman Jyotia (2)  14:24-14:24-  2-674.8 125100mNERGonda, Uttar Pradesh
21.7SNCSwami Narayan Chhapia (2)  14:25-14:25-  2-671.5 125100mNERS Narayan Chpla, Uttar Pradesh
21.8MSWMaskanwa (2)  14:27-14:27-  2-667.2 125103mNERChhapaiya Rd, Uttar Pradesh
21.9LKNRLakhpat Nagar (2)  14:32-14:32-  2-658.3 125102mNERMankapur, Uttar Pradesh
22MURMankapur Junction (5)X14:34-14:36-2m--2-653.138104mNERDistrict Gonda, Uttar Pradesh
22.1JLHIJhilahi (2)  14:46-14:46-  2-646.6 38102mNERSH 9, Uttar Pradesh
22.2MOTGMotiganjX  14:56-14:56-  2-640.3 38111mNERGonda, Uttar Pradesh
22.3BRCKBarua Chak (2)  15:08-15:08-  2-632.9 38107mNERBaruachak, Uttar Pradesh
23GDGonda Junction (3)  15:00 15:20-15:05 15:25-5m12-625.255110mNERGonda 271001, Uttar Pradesh
23.1GDKGonda Kachahri (3)  15:30-15:30-  2-620.3 55110mNERGonda, Uttar Pradesh
23.2KTHLKathola (2)  15:38-15:38-  2-613.4 55106mNERGonda, Uttar Pradesh
23.3MIRMaijapur (2)  15:44-15:44-  2-607.6 55108mNERGonda, Uttar Pradesh
23.4KSRKasturi (2)  15:50-15:50-  2-602.1 55108mNERkasturi Gonda, Uttar Pradesh
23.5CLJColonelGanj (2)X  15:57-15:57-  2-596.3 55108mNERGonda, Uttar Pradesh
23.6SUJSarju (2)  16:05-16:05-  2-588.6 55109mNERGonda, Uttar Pradesh
23.7JLDJarwal Road (2)  16:16-16:16-  2-579.1 55112mNERBehraich, Uttar Pradesh
23.8GHTGhaghara Ghat (2)  16:20-16:20-  2-575.0 55107mNERBahraich, Uttar Pradesh
23.9CKGChowka Ghat (2)X  16:26-16:26-  2-569.4 55107mNERBarabanki, Uttar Pradesh
23.10BUWBurhwal Junction (3)  16:33-16:33-  2-563.0 55119mNERBarabanki, Uttar Pradesh
23.11BURBindaura (2)X  16:44-16:44-  2-553.4 55125mNERbarabanki, Uttar Pradesh
23.12RFRRafinagar (2)  16:47-16:47-  2-550.1 55124mNERbarabanki, Uttar Pradesh
23.13JBRJahangirabad Rj (2)X  16:54-16:54-  2-544.1 55125mNERJahangirabad, Uttar Pradesh
24BBKBarabanki Junction (4)  17:03-17:05-2m--2-535.938122mNRPin-225001, Uttar Pradesh
24.1SFHSafedabad (3)X  17:17-17:17-  2-528.3 38120mNRBarabanki, Uttar Pradesh
24.2JRRJugaur (1)X  17:22-17:22-  2-524.9 38123mNRCanal Rd, Uttar Pradesh
24.3MLMalhaur (3)X  17:31-17:31-  2-519.4 38121mNRLucknow, Uttar Pradesh
25LKOLucknow Charbagh (9)X  17:50-18:25-35m42-507.467123mNR226004, Uttar Pradesh
25.1LJNLucknow Junction (6)X  18:26-18:26-  2-506.6 67126mNERLucknow, Uttar Pradesh
25.2LNWTLucknow West  18:27-18:27-  2-505.7 67123mNRLucknow, Uttar Pradesh
25.3MKGManak Nagar (3)  18:29-18:29-  2-502.6 67129mNRAlambagh, Uttar Pradesh
25.4AMSAmausi (3)  18:35-18:35-  2-496.3 67126mNRLucknow, Uttar Pradesh
25.5POFPiparsand (2)X  18:40-18:40-  2-490.5 67126mNRNational Highway 25A near Lonha village, Uttar Pradesh
25.6HRNHarauni (3)X  18:46-18:46-  2-484.2 67128mNRLucknow, Uttar Pradesh
25.7JTUJaitipur (2)  18:50-18:50-  2-479.2 67127mNRNational Highway 25, Uttar Pradesh
25.8KVXKusumbhi (2)X  18:55-18:55-  2-473.8 67126mNRAjgain, Uttar Pradesh
25.9AJAjgain (3)  19:00-19:00-  2-468.2 67128mNRAjgain, Uttar Pradesh
25.10SICSonik (2)X  19:06-19:06-  2-462.2 67129mNRNational Highway 25, Uttar Pradesh
26ONUnnao Junction (5)X  19:15 19:14-19:16 19:15-1m--2-452.830129mNRUnnao, Uttar Pradesh
26.1MGWMagarwara (2)X  19:28-19:28-  2-446.4 30128mNRUnnao, Uttar Pradesh
26.2CPBKanpur Bridge Left Bank (3)  19:42-19:42-  2-439.3 30120mNRKanpur, Uttar Pradesh
27CNBKanpur Central (10)X  19:50-20:00-10m62-435.486128mNCRKANPUR-208 001, Uttar Pradesh
27.1GMCKanpur Goods Marshalling Yard  20:01-20:01-  2-434.2 86128mNCRKanpur-208 014, Uttar Pradesh
27.2CNJOJuhi Outer Cabin  20:02-20:02-  2-432.5 86131mNCRKanpur, Uttar Pradesh
27.3CPNLKanpur C Panel  20:02-20:02-  2-432.0 86127mNCRKanpur, Uttar Pradesh
27.4GOYGovindpuri Junction (2)X  20:03-20:03-  2-431.5 86129mNCRKANPUR-208 006, Uttar Pradesh
27.5PNKPanki (3)  20:08-20:08-  2-423.9 86129mNCRKANPUR-208 020, Uttar Pradesh
27.6BPUBhaupur  20:16-20:16-  2-412.7 86133mNCRKANPUR Dehat-209 307, Uttar Pradesh
27.7MTOMaithaX  20:23-20:23-  2-402.8 86235mNCRMDR 78C, Uttar Pradesh
27.8RMWRoshan MauX  20:26-20:26-  2-398.7 86135mNCRRoshan Mau, Uttar Pradesh
27.9RURARura (4)  20:31-20:31-  2-391.1 86137mNCRJhinjhak, Uttar Pradesh
27.10AAPAmbiapurX  20:37-20:37-  2-382.3 86140mNCRJhinjhak, Uttar Pradesh
27.11JJKJhinjhak (3)  20:44-20:44-  2-372.0 86140mNCRAuraiya, Uttar Pradesh
27.12PJYPara Jani Halt (1)X  20:48-20:48-  2-366.2 86139mNCRPara Jani, Uttar Pradesh
27.13KNSKanchausi (2)X  20:52-20:52-  2-361.1 86143mNCRState Highway 21, Uttar Pradesh
27.14PHDPhaphund (4)XO  20:58-20:58-  2-352.2 86146mNCRdist. Auraiya, Uttar Pradesh
27.15PATAPata (3)X  21:04-21:04-  2-343.8 86143mNCRPhaphund, Uttar Pradesh
27.16ULDAchalda (3)X  21:10-21:10-  2-335.4 86147mNCRDist. Auraiya(05688-1072), Uttar Pradesh
27.17GHSRGhasara Halt (1)  21:13-21:13-  2-330.0 86146mNCRPhaphund, Uttar Pradesh
27.18SHWSamhon (2)  21:16-21:16-  2-326.3 86144mNCRSamahon, Uttar Pradesh
27.19BNTBharthana (3)X  21:23-21:23-  2-315.9 86147mNCRBharthana, Uttar Pradesh
27.20EKLEkdil (2)X  21:30-21:30-  2-305.7 86150mNCRSarai Ikdil, Uttar Pradesh
28ETWEtawah (5)X  21:37-21:38-1m22-296.087154mNCRDistt. Etawah, Uttar Pradesh
28.1SBSarai Bhopat (2)  21:44-21:44-  2-287.7 87151mNCREtawah(05688-1072), Uttar Pradesh
28.2JGRJaswantnagar (2)  21:49-21:49-  2-280.1 87154mNCRJaswantnagar, Uttar Pradesh
28.3BBLBalrai (3)O  21:55-21:55-  2-271.3 87157mNCRBalrai, Uttar Pradesh
28.4BDNBhadan (2)  22:02-22:02-  2-260.6 87160mNCRFirozabad, Uttar Pradesh
28.5KAAKaurara (3)  22:09-22:09-  2-251.5 87160mNCRFirozabad Distt, Uttar Pradesh
28.6SKBShikohabad Junction (4)X  22:16-22:16-  2-240.6 87166mNCRDistrict Firozabad, Uttar Pradesh
28.7MNRMakkhanpur (2)X  22:23-22:23-  2-230.7 87166mNCRNational Highway 2, Uttar Pradesh
29FZDFirozabad (4)X  22:30-22:31-1m32-220.825164mNCRFirozabad, Uttar Pradesh
29.1HNGHirangaon (2)X  22:49-22:49-  2-213.0 25166mNCRNational Highway 2, Uttar Pradesh
30TDLTundla Junction (5)X  23:10-23:15-5m22-204.282167mNCRDistt.Firozabad, Uttar Pradesh
30.1WSCShivarampur  23:18-23:18-  2-200.7 82168mNCRShivarampur, Uttar Pradesh
30.2MTIMitawali (1)X  23:20-23:20-  2-197.4 82169mNCRMitawali, Uttar Pradesh
30.3BRNBarhan Junction  23:26-23:26-  2-189.5 82173mNCRJN Point-Tundle/Aligarh/Etah, Uttar Pradesh
30.4CMRChamrola (1)  23:31-23:31-  2-182.7 82174mNCRMDR 106W, Uttar Pradesh
30.5JLSJalesar Road (1)X  23:35-23:35-  2-176.3 82172mNCRMDR 106W, Uttar Pradesh
30.6PORAPora (2)X  23:42-23:42-  2-166.6 82179mNCRHathras, Uttar Pradesh
31HRSHathras Junction (3)X  23:47 23:50-23:48 23:51-1m--2-156.275183mNCRMahamaya Nagar(05722-242803), Uttar Pradesh
31.1SNSSasni (3)  23:58-23:58-  2-147.3 75185mNCRSasni, Uttar Pradesh
31.2MXKMandrak (2)  00:04-00:04-  3-139.9 75190mNCRNational Highway 93, Uttar Pradesh
31.3DAQDaud Khan (3)X  00:09-00:09-  3-133.1 75189mNCRNational Highway 91, Uttar Pradesh
32ALJNAligarh Junction (4)  00:15-00:20-5m33-126.187192mNCRAligarh, Uttar Pradesh
32.1MWUEMahrawal (2)  00:24-00:24-  3-119.7 87189mNCRNational Highway 91, Uttar Pradesh
32.2KLAKulwa (2)X  00:28-00:28-  3-114.1 87190mNCRAligarh, Uttar Pradesh
32.3SOMSomna (2)  00:35-00:35-  3-104.0 87195mNCRNational Highway 91, Uttar Pradesh
32.4DARDanwar (2)  00:42-00:42-  3-93.7 87198mNCRDanwar, Uttar Pradesh
32.5KAMPKamalpur (2)  00:46-00:46-  3-88.1 87195mNCRKamalpur, Uttar Pradesh
33KRJKhurja Junction (4)X00:50-00:52-2m--3-82.652199mNCRBulandshahr, Uttar Pradesh
33.1SKQSikandarpur (2)X  00:59-00:59-  3-76.9 52199mNCRMDR 70W, Uttar Pradesh
33.2GNRLGangraul (3)X  01:04-01:04-  3-72.1 52200mNCRMDR 70W, Uttar Pradesh
33.3CHLChola (3)  01:09-01:09-  3-68.0 52204mNCRTahsil Bulandshahar, Uttar Pradesh
33.4WIRWair  01:15-01:15-  3-63.2 52203mNCRBhati Harish Singh, Uttar Pradesh
33.5WAIRWair (2)  01:15-01:15-  3-63.1 52203mNCRBulandshahr District, Uttar Pradesh
33.6DKDEDankaur (3)  01:25-01:25-  3-54.1 52209mNCRShyam Nagar Mandi, Uttar Pradesh
33.7AJRAjaibpur (2)  01:35-01:35-  3-45.8 52207mNCRGreater Noida, Uttar Pradesh
33.8BRKYBoraki (2)  01:41-01:41-  3-40.9 52208mNCRNational Highway 91, Uttar Pradesh
33.9DERDadri (3)  01:45-01:45-  3-36.7 52210mNCR203207, Uttar Pradesh
33.10MIUMaripat (2)  01:53-01:53-  3-29.9 52213mNCRNational Highway 91, Uttar Pradesh
33.11CYZChipyana Buzurg (1)  02:01-02:01-  3-23.5 52209mNRGhaziabad, Uttar Pradesh
34GZBGhaziabad Junction (6)  02:05-02:07-2m33-19.945217mNRGhaziabad, Uttar Pradesh
34.1SBBSahibabad Junction (5)X  02:16-02:16-  3-13.2 45209mNRGhaziabad, Uttar Pradesh
34.2DSAPDelhi Shahdara A Panel  02:22-02:22-  3-8.9 45208mNRVivek Vihar Phase I, Delhi NCT
34.3VVBVivek Vihar (2)  02:22-02:22-  3-8.6 45209mNRJhilmil Industrial Area, Delhi NCT
35DSAShahdara Junction (4)  02:25-02:26-1m--3-6.316212mNRCircular Rd, Delhi NCT
36DLI»Old Delhi Junction (16)»  02:50-03:25-35m1030.056219mNRNear Chandni Chowk Metro Station, Delhi NCT
36.1DSBSadar Bazar (4)  03:26-03:26-  31.3 56220mNRSadar Bazaar, Delhi NCT
36.2SZMDelhi Sabzi Mandi (2)  03:29-03:29-  33.6 56220mNRGulabi Bagh, Delhi NCT
36.3DAZAzadpur (2)  03:34-03:34-  38.0 56218mNRLal Bagh, Delhi NCT
36.4NDAZNaya Azadpur  03:35-03:35-  39.6 56213mNRNaya Azadpur, Delhi NCT
36.5ANDIAdarsh Nagar (2)  03:36-03:36-  310.1 56214mNRShalimar Bagh, Delhi NCT
36.6BHDBadli (2)X  03:40-03:40-  314.2 56217mNRRohini, Delhi NCT
36.7KHKNKhera Kalan (2)  03:44-03:44-  317.5 56215mNRKhera Kalan, Delhi NCT
36.8HUKHolambi KalanX  03:48-03:48-  321.3 56216mNRHolambi Kalan, Delhi NCT
36.9NURNarela (2)X  03:54-03:54-  326.8 56222mNRNarela, Delhi NCT
36.10RDDERathdhana (2)  04:01-04:01-  333.5 56223mNRSonipat, Haryana
36.11HNNHarana Kalan (2)  04:06-04:06-  338.5 56216mNRKMP Expy, Haryana
37SNPSonipat (3)X  04:12-04:13-1m--343.971225mNRSonipat, Haryana
37.1SLKNSandal Kalan  04:20-04:20-  352.3 71223mNRSonepat, Haryana
37.2RUGRajlu GarhiX  04:23-04:23-  355.3 71223mNRSonepat, Haryana
37.3GNUGanaur  04:26-04:26-  359.8 71222mNRGanaur, Haryana
37.4BDMJBhodwal Majri  04:31-04:31-  365.8 71224mNRRailway Rd, Haryana
37.5SMKSamalkha (3)X  04:37-04:37-  372.1 71229mNRSamalkha, Haryana
37.6DWNADiwanaX  04:44-04:44-  381.0 71234mNRNH 1, Haryana
38PNP•Panipat Junction (5)•X  04:51-04:53-2m3389.176235mNRPanipat, Haryana
38.1BBDEBabarpur (2)  04:58-04:58-  395.8 76238mNRBaberpur Mandi, Haryana
38.2KFUKohand (2)  05:02-05:02-  3100.8 76238mNRKarnal, Haryana
38.3GRAGharaunda (2)  05:06-05:06-  3106.0 76244mNRGharaunda, Haryana
38.4BZJTBazida Jatan (2)X  05:13-05:13-  3114.0 76246mNRMaduban, Haryana
39KUNKarnal (3)  05:20-05:21-1m23123.564253mNRKarnal, Haryana
39.1BZKBhaini Khurd (1)  05:27-05:27-  3130.2 64255mNRBhaini Khurd Village, Haryana
39.2TRRTaraori (2)  05:32-05:32-  3135.6 64255mNRTaraori, Haryana
39.3NLKRNilokheri  05:36-05:36-  3139.5 64254mNRNilokheri, Haryana
39.4AMINAmin (2)  05:44-05:44-  3148.1 64257mNRKarnal, Haryana
40KKDEKurukshetra Junction (3)  05:52-05:54-2m--3156.645260mNRKurukshetra, Haryana
40.1DHKRDhoda Khedi (2)  06:01-06:01-  3161.7 45257mNRMDR 116, Haryana
40.2DPPDhirpur (2)  06:09-06:09-  3167.6 45262mNRNH 1, Haryana
40.3DHMZDhola Mazra (2)X  06:16-06:16-  3173.1 45262mNRNH 1, Haryana
40.4SHDMShahbad Markanda (2)X  06:24-06:24-  3178.8 45267mNRShahabad Markanda, Haryana
40.5MOYMohri (2)X  06:37-06:37-  3188.8 45270mNRMohri, Haryana
41UMBAmbala Cantt. Junction (7)  06:50-07:00-10m73198.767278mNRAmbala 133001, Haryana
41.1UBCAmbala City (3)X  07:07-07:07-  3206.2 67273mNRNH-1, Haryana
41.2SMUSambhu (2)  07:15-07:15-  3215.7 67270mNRNH-1, Punjab
42RPJRajpura Junction (3)07:25-07:27 07:26-2 1m13226.768272mNRNH-1, Punjab
42.1SBJSarai Banjara (2)X  07:34-07:34-  3235.8 68268mNRFatehgarh Sahib, Punjab
42.2SDYSadhoo Garh (2)  07:40-07:40-  3242.1 68268mNRFatehgarh Sahib, Punjab
43SIRSirhind Junction (3)X  07:43 07:48-07:45 07:50-2m13251.677271mNRSirhind, Punjab
43.1GVGMandi Gobindgarh (2)  07:58-07:58-  3261.3 77268mNRMandi Gobindgarh, Punjab
44KNNKhanna (3)X  07:59 08:04-08:00 08:05-1m13269.543269mNRNH 1, Punjab
44.1CHAChawapail (2)X  08:20-08:20-  3280.4 43267mNRLudhiana, Punjab
44.2JSPNJaspalonX  08:28-08:28-  3285.7 43261mNRJaspalo, Punjab
44.3DOADoraha (2)  08:34-08:34-  3289.8 43261mNRDoraha, Punjab
44.4SNLSanehwal (3)XO  08:44-08:44-  3297.1 43260mNRLudhiana, Punjab
44.5DDLDhandari Kalan (3)  08:55-08:55-  3304.8 43254mNRDhandari Kalan, Punjab
44.6BHOIDhandari Kalan Block Hut (2)X  09:01-09:01-  3309.1 43251mNRLudhiana, Punjab
45LDHLudhiana Junction (7)X  08:45 09:05-08:55 09:15-10m23312.333246mNRLudhiana 141001, Punjab
45.1LDWLadhowal (2)X  09:31-09:31-  3321.1 33243mNRLadhowal, Punjab
46PHRPhillaur Junction (3)  09:19 09:39-09:20 09:40-1m23325.471246mNRPhillaur, Punjab
46.1BTTNBhatian (2)  09:45-09:45-  3331.5 71244mNRBhattian, Punjab
46.2GRYGoraya (2)X  09:51-09:51-  3338.1 71240mNRGoraya, Punjab
46.3MAULMauli (2)  09:55-09:55-  3343.7 71240mNRAsian Highway 2, Punjab
46.4MLIHMauli Halt (2)  09:56-09:56-  3343.8 71242mNRphagwara, Punjab
47PGWPhagwara Junction (3)X  09:39 09:59-09:40 10:00-1m23347.985245mNRPhagwara, Punjab
47.1CEUChiheru (2)  10:06-10:06-  3355.7 85238mNRDistt Kapurthala 144411, Punjab
47.2JRCJalandhar Cantt. Junction (3)X  10:12-10:12-  3364.2 85239mNRNear Rama Mandi, Punjab
48JUCJalandhar City Junction (5)  09:55 10:15-10:05 10:25-10m13369.149239mNRJalandhar 144001, Punjab
48.1BBSLBaba Sodhal NagarX  10:29-10:29-  3372.4 49239mNRJalandhar, Punjab
48.2SRXSura Nussi (2)  10:34-10:34-  3376.3 49236mNRSura Nussi, Punjab
48.3KREKartarpur (2)X  10:43-10:43-  3383.7 49236mNRKartarpur, Punjab
48.4HMRHamira (2)  10:51-10:51-  3390.1 49202mNRKapurthala, Punjab
48.5RYMRamidi Halt  10:53-10:53-  3392.4 49224mNRGrand Trunk Road, Punjab
48.6DIWDhilwan (2)  11:02-11:02-  3399.4 49225mNRDhilwan, Punjab
49BEASBeas Junction (2)X  10:53 11:09-10:54 11:10-1m13405.227238mNRBeas, Punjab
49.1BBKRBaba Bakala Raiya (2)  11:22-11:22-  3410.7 27235mNRBeas, Punjab
49.2BTRButari (2)  11:35-11:35-  3416.3 27235mNRDistt Amritsar, Punjab
49.3TRATangra (2)X  11:48-11:48-  3422.5 27235mNRAmritsar, Punjab
49.4JNLJandiala (2)X  12:03-12:03-  3429.0 27238mNRJandiala, Punjab
49.5MOWMananwala (2)  12:15-12:15-  3434.8 27233mNRAmritsar, Punjab
50ASRAmritsar Junction (5)  12:30 12:45--33448.2-233mNRAmritsar 143002, Punjab
Scroll to Top
Scroll to Bottom